createdAt,value
2023-05-14T00:00:23.734Z,102264.66
2023-05-14T00:02:50.718Z,102261.44
2023-05-14T00:05:17.485Z,102256.66
2023-05-14T00:07:44.101Z,102260.41
2023-05-14T00:10:11.411Z,102252.94
2023-05-14T00:12:38.016Z,102256.13
2023-05-14T00:15:05.055Z,102248.41
2023-05-14T00:17:31.689Z,102246.03
2023-05-14T00:19:59.610Z,102241.47
2023-05-14T00:22:26.168Z,102239.31
2023-05-14T00:27:47.104Z,102245.19
2023-05-14T00:30:13.817Z,102242.28
2023-05-14T00:32:40.625Z,102236.16
2023-05-14T00:35:41.363Z,102236.16
2023-05-14T00:38:08.088Z,102235.34
2023-05-14T00:40:34.829Z,102234.00
2023-05-14T00:43:01.777Z,102228.94
2023-05-14T00:45:28.577Z,102233.47
2023-05-14T00:47:55.752Z,102218.53
2023-05-14T00:50:23.290Z,102223.88
2023-05-14T00:52:50.109Z,102214.78
2023-05-14T00:58:12.918Z,102214.00
2023-05-14T01:00:40.854Z,102208.13
2023-05-14T01:03:08.541Z,102207.03
2023-05-14T01:05:54.040Z,102207.84
2023-05-14T01:08:46.739Z,102205.19
2023-05-14T01:11:26.464Z,102207.06
2023-05-14T01:14:21.527Z,102210.28
2023-05-14T01:16:52.433Z,102207.06
2023-05-14T01:19:33.670Z,102207.34
2023-05-14T01:22:00.266Z,102203.34
2023-05-14T01:24:26.852Z,102207.59
2023-05-14T01:26:58.240Z,102203.56
2023-05-14T01:29:29.107Z,102199.03
2023-05-14T01:31:57.979Z,102201.72
2023-05-14T01:34:28.431Z,102210.81
2023-05-14T01:36:57.285Z,102198.53
2023-05-14T01:39:27.804Z,102213.16
2023-05-14T01:41:55.814Z,102204.38
2023-05-14T01:44:22.644Z,102204.91
2023-05-14T01:46:49.174Z,102201.44
2023-05-14T01:49:18.121Z,102197.69
2023-05-14T01:51:44.951Z,102194.50
2023-05-14T01:54:11.945Z,102188.34
2023-05-14T01:56:38.545Z,102189.69
2023-05-14T01:59:05.252Z,102187.53
2023-05-14T02:01:32.305Z,102198.47
2023-05-14T02:03:58.944Z,102182.47
2023-05-14T02:06:25.710Z,102177.94
2023-05-14T02:08:52.325Z,102176.88
2023-05-14T02:11:18.918Z,102171.25
2023-05-14T02:13:45.423Z,102170.72
2023-05-14T02:16:12.226Z,102163.81
2023-05-14T02:18:38.841Z,102172.31
2023-05-14T02:21:05.712Z,102172.84
2023-05-14T02:23:40.971Z,102174.19
2023-05-14T02:26:11.503Z,102177.38
2023-05-14T02:28:38.242Z,102177.91
2023-05-14T02:31:05.001Z,102181.38
2023-05-14T02:33:31.710Z,102172.84
2023-05-14T02:35:58.408Z,102166.13
2023-05-14T02:38:27.061Z,102160.81
2023-05-14T02:40:53.807Z,102169.06
2023-05-14T02:43:20.442Z,102167.72
2023-05-14T02:45:47.476Z,102156.50
2023-05-14T02:48:14.258Z,102162.88
2023-05-14T02:50:40.916Z,102158.63
2023-05-14T02:53:08.184Z,102157.81
2023-05-14T02:55:35.617Z,102161.78
2023-05-14T02:58:02.430Z,102165.53
2023-05-14T03:00:29.447Z,102164.72
2023-05-14T03:02:56.562Z,102158.59
2023-05-14T03:05:24.103Z,102160.72
2023-05-14T03:07:53.674Z,102159.09
2023-05-14T03:10:20.610Z,102156.13
2023-05-14T03:12:47.726Z,102151.63
2023-05-14T03:15:14.923Z,102146.81
2023-05-14T03:17:41.696Z,102150.28
2023-05-14T03:23:02.840Z,102157.16
2023-05-14T03:25:29.440Z,102152.88
2023-05-14T03:27:56.117Z,102155.03
2023-05-14T03:30:23.113Z,102152.88
2023-05-14T03:32:50.480Z,102151.00
2023-05-14T03:35:17.175Z,102161.66
2023-05-14T03:37:43.909Z,102157.91
2023-05-14T03:40:11.156Z,102159.25
2023-05-14T03:42:37.724Z,102152.34
2023-05-14T03:45:04.570Z,102155.78
2023-05-14T03:47:31.295Z,102155.25
2023-05-14T03:49:58.814Z,102156.28
2023-05-14T03:52:25.512Z,102153.91
2023-05-14T03:54:52.070Z,102148.59
2023-05-14T03:57:18.599Z,102141.09
2023-05-14T03:59:45.271Z,102142.41
2023-05-14T04:02:11.840Z,102142.41
2023-05-14T04:04:38.812Z,102146.41
2023-05-14T04:07:05.368Z,102136.31
2023-05-14T04:09:32.204Z,102134.19
2023-05-14T04:11:58.844Z,102136.56
2023-05-14T04:14:25.519Z,102128.81
2023-05-14T04:16:52.223Z,102137.59
2023-05-14T04:19:19.260Z,102128.81
2023-05-14T04:21:45.893Z,102131.47
2023-05-14T04:24:12.673Z,102140.00
2023-05-14T04:26:39.236Z,102138.41
2023-05-14T04:29:05.822Z,102138.13
2023-05-14T04:31:33.864Z,102133.88
2023-05-14T04:34:00.695Z,102134.94
2023-05-14T04:36:27.449Z,102133.09
2023-05-14T04:38:54.045Z,102137.34
2023-05-14T04:41:21.142Z,102133.34
2023-05-14T04:43:50.384Z,102137.88
2023-05-14T04:46:17.070Z,102132.81
2023-05-14T04:48:43.652Z,102141.59
2023-05-14T04:51:10.307Z,102136.00
2023-05-14T04:53:36.968Z,102137.34
2023-05-14T04:56:03.702Z,102138.97
2023-05-14T04:58:34.523Z,102146.16
2023-05-14T05:01:02.957Z,102142.44
2023-05-14T05:03:29.841Z,102139.53
2023-05-14T05:05:56.439Z,102138.19
2023-05-14T05:08:23.394Z,102138.78
2023-05-14T05:10:49.929Z,102130.53
2023-05-14T05:13:17.218Z,102147.59
2023-05-14T05:15:44.279Z,102136.94
2023-05-14T05:18:10.883Z,102138.84
2023-05-14T05:20:37.562Z,102150.31
2023-05-14T05:23:04.173Z,102147.13
2023-05-14T05:25:30.977Z,102144.75
2023-05-14T05:27:57.570Z,102149.34
2023-05-14T05:30:24.407Z,102159.22
2023-05-14T05:32:51.129Z,102153.38
2023-05-14T05:35:17.699Z,102150.19
2023-05-14T05:37:45.305Z,102148.88
2023-05-14T05:40:14.084Z,102148.34
2023-05-14T05:42:41.581Z,102144.34
2023-05-14T05:45:09.068Z,102144.34
2023-05-14T05:47:36.255Z,102145.13
2023-05-14T05:50:03.186Z,102149.41
2023-05-14T05:52:29.930Z,102159.28
2023-05-14T05:54:56.517Z,102163.03
2023-05-14T05:57:26.234Z,102157.69
2023-05-14T05:59:53.331Z,102160.88
2023-05-14T06:02:20.478Z,102159.28
2023-05-14T06:04:47.060Z,102150.75
2023-05-14T06:07:13.839Z,102162.22
2023-05-14T06:09:40.442Z,102160.59
2023-05-14T06:12:07.337Z,102164.34
2023-05-14T06:14:33.894Z,102156.63
2023-05-14T06:17:01.015Z,102159.53
2023-05-14T06:19:27.615Z,102171.53
2023-05-14T06:24:52.794Z,102158.50
2023-05-14T06:27:19.367Z,102161.97
2023-05-14T06:29:46.055Z,102179.56
2023-05-14T06:32:15.586Z,102188.38
2023-05-14T06:34:42.847Z,102179.03
2023-05-14T06:37:11.617Z,102167.00
2023-05-14T06:39:38.492Z,102165.13
2023-05-14T06:42:05.493Z,102170.69
2023-05-14T06:44:32.639Z,102161.31
2023-05-14T06:46:59.284Z,102169.84
2023-05-14T06:49:26.065Z,102174.09
2023-05-14T06:51:52.821Z,102165.47
2023-05-14T06:54:20.754Z,102160.50
2023-05-14T06:56:47.589Z,102159.56
2023-05-14T06:59:14.062Z,102156.22
2023-05-14T07:01:41.054Z,102152.13
2023-05-14T07:04:08.027Z,102158.72
2023-05-14T07:06:34.891Z,102145.44
2023-05-14T07:09:01.905Z,102148.19
2023-05-14T07:11:28.546Z,102151.34
2023-05-14T07:13:55.430Z,102148.66
2023-05-14T07:16:22.150Z,102157.31
2023-05-14T07:18:48.806Z,102161.00
2023-05-14T07:21:15.490Z,102153.50
2023-05-14T07:23:42.107Z,102158.72
2023-05-14T07:26:09.008Z,102155.88
2023-05-14T07:28:35.973Z,102154.72
2023-05-14T07:31:05.259Z,102151.91
2023-05-14T07:33:31.949Z,102153.28
2023-05-14T07:35:58.604Z,102145.19
2023-05-14T07:38:25.567Z,102143.59
2023-05-14T07:40:52.158Z,102148.03
2023-05-14T07:43:18.706Z,102143.22
2023-05-14T07:45:45.698Z,102154.88
2023-05-14T07:48:12.711Z,102138.53
2023-05-14T07:50:39.357Z,102139.69
2023-05-14T07:53:05.912Z,102140.63
2023-05-14T07:55:32.491Z,102137.94
2023-05-14T07:57:59.577Z,102132.41
2023-05-14T08:00:26.249Z,102137.72
2023-05-14T08:02:53.136Z,102135.97
2023-05-14T08:05:20.026Z,102137.31
2023-05-14T08:07:46.802Z,102144.88
2023-05-14T08:10:13.422Z,102140.81
2023-05-14T08:12:40.317Z,102126.59
2023-05-14T08:15:08.027Z,102126.50
2023-05-14T08:17:34.607Z,102132.63
2023-05-14T08:22:57.233Z,102128.66
2023-05-14T08:25:24.440Z,102135.13
2023-05-14T08:27:51.093Z,102132.06
2023-05-14T08:30:18.211Z,102132.69
2023-05-14T08:32:44.915Z,102133.50
2023-05-14T08:38:05.682Z,102137.78
2023-05-14T08:40:32.488Z,102130.22
2023-05-14T08:43:00.924Z,102126.69
2023-05-14T08:45:34.137Z,102129.19
2023-05-14T08:48:05.890Z,102122.16
2023-05-14T08:50:32.781Z,102113.63
2023-05-14T08:52:59.501Z,102117.44
2023-05-14T08:55:27.549Z,102110.34
2023-05-14T08:57:54.476Z,102117.41
2023-05-14T09:00:21.240Z,102118.47
2023-05-14T09:02:48.545Z,102111.59
2023-05-14T09:05:17.417Z,102115.28
2023-05-14T09:07:44.304Z,102113.88
2023-05-14T09:10:11.825Z,102107.00
2023-05-14T09:12:38.610Z,102104.59
2023-05-14T09:15:06.422Z,102104.59
2023-05-14T09:17:33.762Z,102106.88
2023-05-14T09:22:54.966Z,102102.13
2023-05-14T09:25:27.684Z,102099.13
2023-05-14T09:27:57.315Z,102094.16
2023-05-14T09:30:26.550Z,102096.78
2023-05-14T09:32:55.205Z,102102.28
2023-05-14T09:35:24.089Z,102093.84
2023-05-14T09:37:55.172Z,102091.72
2023-05-14T09:40:24.670Z,102089.94
2023-05-14T09:42:51.823Z,102086.44
2023-05-14T09:48:14.315Z,102080.97
2023-05-14T09:50:44.838Z,102078.34
2023-05-14T09:53:12.065Z,102076.50
2023-05-14T09:55:39.237Z,102080.56
2023-05-14T09:58:06.201Z,102075.16
2023-05-14T10:00:33.226Z,102079.19
2023-05-14T10:03:06.944Z,102083.88
2023-05-14T10:05:37.424Z,102070.34
2023-05-14T10:08:10.332Z,102069.75
2023-05-14T10:10:38.267Z,102067.66
2023-05-14T10:13:09.589Z,102071.88
2023-05-14T10:15:55.518Z,102064.13
2023-05-14T10:18:24.439Z,102063.84
2023-05-14T10:21:04.200Z,102064.22
2023-05-14T10:23:31.158Z,102058.66
2023-05-14T10:25:59.090Z,102059.19
2023-05-14T10:28:26.572Z,102059.97
2023-05-14T10:30:54.342Z,102057.13
2023-05-14T10:33:21.018Z,102055.22
2023-05-14T10:35:59.871Z,102056.19
2023-05-14T10:38:32.366Z,102061.88
2023-05-14T10:41:10.320Z,102049.03
2023-05-14T10:43:38.851Z,102042.19
2023-05-14T10:46:06.433Z,102048.56
2023-05-14T10:48:34.085Z,102044.91
2023-05-14T10:51:01.590Z,102035.22
2023-05-14T10:53:35.219Z,102034.09
2023-05-14T10:56:06.116Z,102037.75
2023-05-14T10:58:36.383Z,102039.13
2023-05-14T11:01:03.210Z,102031.19
2023-05-14T11:03:32.232Z,102024.66
2023-05-14T11:06:08.470Z,102021.63
2023-05-14T11:08:35.452Z,102020.97
2023-05-14T11:11:02.539Z,102022.69
2023-05-14T11:13:30.197Z,102020.75
2023-05-14T11:16:02.203Z,102025.47
2023-05-14T11:18:37.189Z,102020.84
2023-05-14T11:21:03.996Z,102018.31
2023-05-14T11:23:30.615Z,102012.09
2023-05-14T11:26:00.336Z,102015.25
2023-05-14T11:28:27.459Z,102012.81
2023-05-14T11:30:54.379Z,102007.56
2023-05-14T11:33:21.472Z,102003.94
2023-05-14T11:35:48.508Z,102009.22
2023-05-14T11:38:18.532Z,102001.69
2023-05-14T11:40:53.520Z,101996.63
2023-05-14T11:43:20.491Z,101994.19
2023-05-14T11:45:52.526Z,101993.72
2023-05-14T11:48:24.962Z,101989.41
2023-05-14T11:50:52.989Z,101986.66
2023-05-14T11:53:28.574Z,101991.28
2023-05-14T11:55:57.812Z,101990.97
2023-05-14T11:58:24.986Z,101989.63
2023-05-14T12:00:53.079Z,101984.03
2023-05-14T12:03:25.972Z,101989.34
2023-05-14T12:06:08.597Z,101980.78
2023-05-14T12:08:35.232Z,101983.94
2023-05-14T12:11:02.131Z,101974.16
2023-05-14T12:13:30.870Z,101980.97
2023-05-14T12:16:02.485Z,101979.66
2023-05-14T12:18:31.520Z,101968.38
2023-05-14T12:21:06.037Z,101966.53
2023-05-14T12:23:32.864Z,101969.09
2023-05-14T12:26:09.461Z,101962.91
2023-05-14T12:28:38.890Z,101964.69
2023-05-14T12:31:05.637Z,101957.63
2023-05-14T12:33:32.410Z,101963.03
2023-05-14T12:36:17.589Z,101958.34
2023-05-14T12:38:47.783Z,101953.22
2023-05-14T12:41:14.336Z,101951.84
2023-05-14T12:43:43.793Z,101956.03
2023-05-14T12:46:10.811Z,101948.09
2023-05-14T12:48:37.396Z,101939.31
2023-05-14T12:51:04.072Z,101944.50
2023-05-14T12:53:30.746Z,101944.28
2023-05-14T12:55:57.442Z,101938.78
2023-05-14T12:58:24.006Z,101936.31
2023-05-14T13:00:50.793Z,101931.81
2023-05-14T13:03:17.555Z,101938.56
2023-05-14T13:05:44.324Z,101934.41
2023-05-14T13:08:11.101Z,101934.41
2023-05-14T13:10:37.705Z,101929.44
2023-05-14T13:13:04.430Z,101936.09
2023-05-14T13:15:34.063Z,101930.91
2023-05-14T13:18:01.030Z,101926.75
2023-05-14T13:20:27.826Z,101924.28
2023-05-14T13:22:54.518Z,101918.97
2023-05-14T13:25:21.138Z,101917.63
2023-05-14T13:27:50.825Z,101922.25
2023-05-14T13:30:20.600Z,101911.72
2023-05-14T13:32:47.253Z,101913.66
2023-05-14T13:35:14.641Z,101911.06
2023-05-14T13:40:08.583Z,101912.03
2023-05-14T13:42:35.910Z,101913.97
2023-05-14T13:45:02.747Z,101907.00
2023-05-14T13:47:29.490Z,101908.09
2023-05-14T13:49:56.649Z,101903.00
2023-05-14T13:52:23.354Z,101896.31
2023-05-14T13:54:50.124Z,101900.38
2023-05-14T13:57:17.047Z,101891.56
2023-05-14T13:59:43.714Z,101897.38
2023-05-14T14:02:10.531Z,101893.53
2023-05-14T14:04:37.085Z,101890.28
2023-05-14T14:07:04.091Z,101888.66
2023-05-14T14:09:35.034Z,101880.38
2023-05-14T14:12:04.504Z,101884.13
2023-05-14T14:14:31.361Z,101883.63
2023-05-14T14:16:57.945Z,101883.25
2023-05-14T14:19:24.728Z,101880.19
2023-05-14T14:24:17.803Z,101871.66
2023-05-14T14:26:44.387Z,101875.59
2023-05-14T14:29:10.986Z,101878.06
2023-05-14T14:31:37.677Z,101869.81
2023-05-14T14:34:04.364Z,101872.56
2023-05-14T14:36:31.748Z,101866.91
2023-05-14T14:38:58.431Z,101869.28
2023-05-14T14:41:25.037Z,101862.41
2023-05-14T14:43:51.570Z,101859.03
2023-05-14T14:46:18.251Z,101864.31
2023-05-14T14:48:45.068Z,101869.72
2023-05-14T14:51:11.649Z,101870.19
2023-05-14T14:53:38.406Z,101874.56
2023-05-14T14:56:05.322Z,101866.59
2023-05-14T14:58:32.130Z,101862.41
2023-05-14T15:00:59.246Z,101864.91
2023-05-14T15:03:26.641Z,101865.81
2023-05-14T15:05:53.823Z,101861.97
2023-05-14T15:08:25.379Z,101863.66
2023-05-14T15:10:52.157Z,101864.78
2023-05-14T15:13:19.222Z,101858.47
2023-05-14T15:15:45.887Z,101861.50
2023-05-14T15:18:12.871Z,101862.53
2023-05-14T15:23:34.055Z,101857.34
2023-05-14T15:26:00.773Z,101854.84
2023-05-14T15:28:27.490Z,101856.13
2023-05-14T15:30:55.016Z,101843.69
2023-05-14T15:33:21.624Z,101857.66
2023-05-14T15:35:48.446Z,101846.25
2023-05-14T15:38:15.432Z,101847.59
2023-05-14T15:40:42.234Z,101845.81
2023-05-14T15:43:09.053Z,101842.44
2023-05-14T15:45:35.681Z,101838.50
2023-05-14T15:48:02.272Z,101836.91
2023-05-14T15:50:29.018Z,101834.31
2023-05-14T15:52:55.634Z,101830.47
2023-05-14T15:58:16.598Z,101824.53
2023-05-14T16:00:43.528Z,101827.22
2023-05-14T16:03:10.609Z,101825.88
2023-05-14T16:08:17.924Z,101830.72
2023-05-14T16:10:44.751Z,101829.59
2023-05-14T16:13:11.318Z,101829.59
2023-05-14T16:15:39.469Z,101824.97
2023-05-14T16:18:06.375Z,101832.75
2023-05-14T16:20:33.158Z,101837.28
2023-05-14T16:22:59.907Z,101833.31
2023-05-14T16:25:26.605Z,101834.44
2023-05-14T16:27:53.326Z,101840.44
2023-05-14T16:30:19.880Z,101838.75
2023-05-14T16:32:49.499Z,101836.00
2023-05-14T16:35:16.952Z,101838.78
2023-05-14T16:37:43.729Z,101837.66
2023-05-14T16:40:11.886Z,101831.22
2023-05-14T16:42:38.765Z,101842.81
2023-05-14T16:45:05.890Z,101835.34
2023-05-14T16:47:35.327Z,101840.72
2023-05-14T16:50:01.995Z,101840.06
2023-05-14T16:52:28.664Z,101843.84
2023-05-14T16:54:55.355Z,101846.59
2023-05-14T16:57:22.068Z,101851.06
2023-05-14T16:59:48.768Z,101857.44
2023-05-14T17:02:15.481Z,101846.44
2023-05-14T17:04:42.537Z,101858.50
2023-05-14T17:07:09.470Z,101856.69
2023-05-14T17:09:36.373Z,101863.66
2023-05-14T17:12:03.188Z,101859.72
2023-05-14T17:14:29.716Z,101852.03
2023-05-14T17:16:56.414Z,101848.91
2023-05-14T17:19:23.061Z,101859.28
2023-05-14T17:21:49.970Z,101857.69
2023-05-14T17:24:16.792Z,101854.47
2023-05-14T17:26:43.986Z,101855.94
2023-05-14T17:29:11.058Z,101855.94
2023-05-14T17:31:37.905Z,101866.38
2023-05-14T17:34:04.487Z,101851.34
2023-05-14T17:36:32.335Z,101858.72
2023-05-14T17:38:58.958Z,101861.56
2023-05-14T17:41:25.552Z,101858.75
2023-05-14T17:43:55.124Z,101853.56
2023-05-14T17:46:21.839Z,101851.97
2023-05-14T17:48:48.493Z,101848.66
2023-05-14T17:51:15.166Z,101853.28
2023-05-14T17:53:42.097Z,101858.84
2023-05-14T17:56:09.020Z,101864.75
2023-05-14T17:58:36.221Z,101865.66
2023-05-14T18:01:03.413Z,101867.59
2023-05-14T18:03:30.461Z,101874.44
2023-05-14T18:05:58.561Z,101881.06
2023-05-14T18:08:25.298Z,101877.59
2023-05-14T18:10:51.855Z,101875.06
2023-05-14T18:13:18.545Z,101873.00
2023-05-14T18:15:45.295Z,101880.44
2023-05-14T18:18:12.569Z,101871.53
2023-05-14T18:20:39.193Z,101881.97
2023-05-14T18:23:06.204Z,101886.72
2023-05-14T18:25:32.908Z,101893.22
2023-05-14T18:27:59.714Z,101893.19
2023-05-14T18:30:26.520Z,101887.03
2023-05-14T18:32:53.356Z,101895.53
2023-05-14T18:35:19.899Z,101895.00
2023-05-14T18:37:46.635Z,101900.81
2023-05-14T18:40:16.366Z,101893.75
2023-05-14T18:42:44.873Z,101887.66
2023-05-14T18:45:11.737Z,101892.25
2023-05-14T18:47:39.717Z,101902.00
2023-05-14T18:50:07.885Z,101898.94
2023-05-14T18:52:34.516Z,101909.56
2023-05-14T18:55:01.241Z,101904.31
2023-05-14T18:57:29.615Z,101908.56
2023-05-14T18:59:56.351Z,101911.72
2023-05-14T19:02:22.998Z,101915.88
2023-05-14T19:04:52.938Z,101915.44
2023-05-14T19:07:20.823Z,101920.81
2023-05-14T19:09:47.519Z,101925.56
2023-05-14T19:12:14.435Z,101920.00
2023-05-14T19:14:40.977Z,101921.72
2023-05-14T19:17:07.584Z,101918.34
2023-05-14T19:19:34.244Z,101916.00
2023-05-14T19:22:00.807Z,101911.91
2023-05-14T19:24:27.646Z,101917.34
2023-05-14T19:26:54.397Z,101917.81
2023-05-14T19:29:21.137Z,101915.72
2023-05-14T19:31:47.735Z,101909.06
2023-05-14T19:34:14.473Z,101913.22
2023-05-14T19:36:41.764Z,101914.94
2023-05-14T19:39:08.359Z,101917.31
2023-05-14T19:41:35.042Z,101917.91
2023-05-14T19:44:01.661Z,101913.41
2023-05-14T19:46:28.292Z,101919.97
2023-05-14T19:48:54.776Z,101925.53
2023-05-14T19:51:21.398Z,101915.00
2023-05-14T19:53:48.084Z,101917.78
2023-05-14T19:56:15.556Z,101916.41
2023-05-14T19:58:43.331Z,101911.84
2023-05-14T20:01:10.253Z,101915.00
2023-05-14T20:03:37.596Z,101912.41
2023-05-14T20:06:04.313Z,101916.91
2023-05-14T20:08:30.969Z,101911.31
2023-05-14T20:10:57.574Z,101910.38
2023-05-14T20:13:25.229Z,101913.72
2023-05-14T20:15:52.210Z,101910.19
2023-05-14T20:18:18.762Z,101908.97
2023-05-14T20:20:45.376Z,101911.38
2023-05-14T20:23:11.954Z,101911.16
2023-05-14T20:25:43.527Z,101906.81
2023-05-14T20:28:10.519Z,101905.91
2023-05-14T20:30:37.285Z,101903.00
2023-05-14T20:33:04.120Z,101895.38
2023-05-14T20:35:31.148Z,101898.16
2023-05-14T20:37:57.850Z,101899.53
2023-05-14T20:40:25.441Z,101901.19
2023-05-14T20:42:52.301Z,101902.13
2023-05-14T20:45:19.080Z,101903.50
2023-05-14T20:47:45.707Z,101894.69
2023-05-14T20:50:13.964Z,101897.41
2023-05-14T20:52:40.890Z,101893.44
2023-05-14T20:55:08.203Z,101890.28
2023-05-14T20:57:34.697Z,101887.38
2023-05-14T21:00:02.415Z,101897.06
2023-05-14T21:02:29.053Z,101883.19
2023-05-14T21:05:04.433Z,101887.50
2023-05-14T21:07:31.978Z,101884.84
2023-05-14T21:09:58.981Z,101880.56
2023-05-14T21:12:25.751Z,101875.50
2023-05-14T21:14:52.394Z,101880.63
2023-05-14T21:17:19.426Z,101881.69
2023-05-14T21:19:46.059Z,101882.50
2023-05-14T21:22:13.126Z,101883.06
2023-05-14T21:24:39.570Z,101884.94
2023-05-14T21:27:06.619Z,101882.03
2023-05-14T21:29:33.458Z,101887.16
2023-05-14T21:32:00.152Z,101890.94
2023-05-14T21:34:26.868Z,101882.66
2023-05-14T21:36:53.475Z,101888.59
2023-05-14T21:39:20.148Z,101885.13
2023-05-14T21:41:46.690Z,101875.00
2023-05-14T21:44:13.469Z,101881.72
2023-05-14T21:46:40.135Z,101865.44
2023-05-14T21:49:07.156Z,101869.47
2023-05-14T21:51:33.758Z,101864.69
2023-05-14T21:54:00.362Z,101858.81
2023-05-14T21:56:27.276Z,101869.53
2023-05-14T21:58:55.964Z,101859.94
2023-05-14T22:01:23.035Z,101854.94
2023-05-14T22:03:50.030Z,101865.72
2023-05-14T22:06:16.802Z,101863.88
2023-05-14T22:08:43.481Z,101874.34
2023-05-14T22:11:10.091Z,101871.94
2023-05-14T22:13:40.906Z,101859.69
2023-05-14T22:16:13.177Z,101855.72
2023-05-14T22:18:40.557Z,101847.13
2023-05-14T22:21:07.054Z,101851.41
2023-05-14T22:23:33.544Z,101850.63
2023-05-14T22:26:00.474Z,101848.50
2023-05-14T22:28:27.211Z,101849.34
2023-05-14T22:30:53.825Z,101851.78
2023-05-14T22:33:20.423Z,101859.53
2023-05-14T22:35:46.992Z,101846.94
2023-05-14T22:38:14.078Z,101851.22
2023-05-14T22:40:40.828Z,101852.28
2023-05-14T22:43:07.741Z,101841.38
2023-05-14T22:45:34.411Z,101842.22
2023-05-14T22:48:01.082Z,101833.47
2023-05-14T22:50:27.735Z,101834.81
2023-05-14T22:52:54.612Z,101829.78
2023-05-14T22:55:21.200Z,101831.16
2023-05-14T22:57:47.985Z,101826.34
2023-05-14T23:00:14.800Z,101822.06
2023-05-14T23:02:41.384Z,101826.09
2023-05-14T23:05:08.970Z,101814.66
2023-05-14T23:07:35.956Z,101814.66
2023-05-14T23:10:02.811Z,101814.38
2023-05-14T23:12:29.338Z,101809.31
2023-05-14T23:14:56.156Z,101826.41
2023-05-14T23:17:22.807Z,101821.06
2023-05-14T23:19:49.620Z,101819.75
2023-05-14T23:22:16.378Z,101819.53
2023-05-14T23:24:43.026Z,101816.63
2023-05-14T23:27:11.481Z,101810.75
2023-05-14T23:29:38.517Z,101810.00
2023-05-14T23:32:05.341Z,101804.66
2023-05-14T23:34:32.894Z,101799.84
2023-05-14T23:36:59.547Z,101800.63
2023-05-14T23:39:26.276Z,101793.44
2023-05-14T23:41:52.798Z,101789.91
2023-05-14T23:44:19.476Z,101776.00
2023-05-14T23:46:46.707Z,101778.13
2023-05-14T23:49:13.408Z,101772.78
2023-05-14T23:51:40.329Z,101767.44
2023-05-14T23:54:06.909Z,101767.13
2023-05-14T23:56:33.673Z,101763.41
2023-05-14T23:59:00.288Z,101757.28
